Time;durP1;ratioP1;P1;durP2;ratioP2;P2;SDS_P1;SDS_P2;PMS_P1;PMS_P2;Temp;Humidity;BMP_temperature;BMP_pressure;BME280_temperature;BME280_humidity;BME280_pressure;Samples;Min_cycle;Max_cycle;Signal;HPM_P1;HPM_P2
2022/04/16 00:00:24;;;;;;;12.93;11.60;;;10.90;99.90;;;;;;5073507;28;20028;-73
2022/04/16 00:02:50;;;;;;;13.13;11.80;;;11.00;99.90;;;;;;5072960;28;20104;-74
2022/04/16 00:05:15;;;;;;;13.35;11.35;;;10.90;99.90;;;;;;5073256;28;20052;-74
2022/04/16 00:07:42;;;;;;;16.75;11.98;;;10.90;99.90;;;;;;5072600;28;20108;-74
2022/04/16 00:10:09;;;;;;;13.13;11.90;;;10.90;99.90;;;;;;5073179;28;20052;-74
2022/04/16 00:12:34;;;;;;;15.65;11.55;;;10.90;99.90;;;;;;5073226;28;20074;-73
2022/04/16 00:15:00;;;;;;;13.95;10.98;;;10.90;99.90;;;;;;5073617;28;20430;-74
2022/04/16 00:17:25;;;;;;;13.13;11.80;;;10.90;99.90;;;;;;5073864;28;20103;-73
2022/04/16 00:19:51;;;;;;;15.65;11.82;;;10.90;99.90;;;;;;5073114;28;20058;-74
2022/04/16 00:22:18;;;;;;;12.25;11.15;;;10.80;99.90;;;;;;5072224;28;20017;-73
2022/04/16 00:24:44;;;;;;;13.57;11.40;;;10.80;99.90;;;;;;5073795;28;20050;-74
2022/04/16 00:27:10;;;;;;;12.90;11.63;;;10.90;99.90;;;;;;5073243;28;20103;-73
2022/04/16 00:29:38;;;;;;;13.13;11.85;;;10.90;99.90;;;;;;5072529;28;20029;-74
2022/04/16 00:32:05;;;;;;;14.57;12.27;;;10.80;99.90;;;;;;5077563;28;20047;-75
2022/04/16 00:34:31;;;;;;;14.27;11.85;;;10.80;99.90;;;;;;5072403;28;20033;-73
2022/04/16 00:36:57;;;;;;;13.75;11.73;;;10.80;99.90;;;;;;5072255;28;20035;-73
2022/04/16 00:39:22;;;;;;;12.73;11.15;;;10.80;99.90;;;;;;5072473;28;20025;-73
2022/04/16 00:41:48;;;;;;;12.40;11.23;;;10.80;99.90;;;;;;5072513;28;20541;-73
2022/04/16 00:44:14;;;;;;;12.95;11.75;;;10.80;99.90;;;;;;5071856;28;20027;-73
2022/04/16 00:46:39;;;;;;;12.75;11.45;;;10.80;99.90;;;;;;5072342;28;20025;-73
2022/04/16 00:49:05;;;;;;;13.65;11.80;;;10.70;99.90;;;;;;5072779;28;20035;-73
2022/04/16 00:51:32;;;;;;;12.85;11.57;;;10.80;99.90;;;;;;5071566;28;20055;-73
2022/04/16 00:53:58;;;;;;;15.57;11.48;;;10.70;99.90;;;;;;5072588;28;20033;-73
2022/04/16 00:56:23;;;;;;;14.18;12.15;;;10.60;99.90;;;;;;5072121;28;20477;-73
2022/04/16 00:58:49;;;;;;;13.55;11.77;;;10.60;99.90;;;;;;5071936;28;20074;-72
2022/04/16 01:01:14;;;;;;;15.93;12.73;;;11.20;99.90;;;;;;5062701;28;20028;-74
2022/04/16 01:03:43;;;;;;;12.95;11.30;;;10.40;99.90;;;;;;5052470;28;20121;-73
2022/04/16 01:06:14;;;;;;;13.43;11.77;;;10.30;99.90;;;;;;5051611;28;20115;-74
2022/04/16 01:08:46;;;;;;;12.95;11.60;;;10.30;99.90;;;;;;5052068;28;20057;-74
2022/04/16 01:11:15;;;;;;;12.85;11.70;;;10.20;99.90;;;;;;5051578;28;20100;-74
2022/04/16 01:13:47;;;;;;;16.60;12.00;;;10.10;99.90;;;;;;5052445;28;20400;-74
2022/04/16 01:16:12;;;;;;;13.32;10.85;;;10.00;99.90;;;;;;5052298;28;20091;-74
2022/04/16 01:18:50;;;;;;;14.05;11.35;;;9.90;99.90;;;;;;5051553;28;20089;-73
2022/04/16 01:21:17;;;;;;;13.50;12.25;;;9.90;99.90;;;;;;5052136;28;20024;-73
2022/04/16 01:23:42;;;;;;;13.65;12.25;;;9.80;99.90;;;;;;5052414;28;20112;-73
2022/04/16 01:26:08;;;;;;;13.48;12.02;;;9.80;99.90;;;;;;5051370;28;20435;-74
2022/04/16 01:28:33;;;;;;;14.07;12.15;;;9.60;99.90;;;;;;5052187;28;20036;-73
2022/04/16 01:30:59;;;;;;;17.73;13.55;;;9.60;99.90;;;;;;5052088;28;20025;-73
2022/04/16 01:33:25;;;;;;;16.10;12.82;;;9.60;99.90;;;;;;5051306;28;20040;-73
2022/04/16 01:35:53;;;;;;;12.73;11.45;;;9.60;99.90;;;;;;5052525;28;20123;-74
2022/04/16 01:38:19;;;;;;;15.13;12.20;;;9.50;99.90;;;;;;5056984;28;20492;-73
2022/04/16 01:40:45;;;;;;;14.77;12.32;;;9.50;99.90;;;;;;5050561;28;20028;-73
2022/04/16 01:43:10;;;;;;;13.20;11.50;;;9.40;99.90;;;;;;5051861;28;20029;-73
2022/04/16 01:45:36;;;;;;;13.35;11.63;;;9.30;99.90;;;;;;5051957;28;20473;-74
2022/04/16 01:48:01;;;;;;;13.77;12.35;;;9.30;99.90;;;;;;5058551;28;20100;-73
2022/04/16 01:50:27;;;;;;;13.95;12.00;;;9.30;99.90;;;;;;5051945;28;20036;-74
2022/04/16 01:52:53;;;;;;;15.20;12.90;;;9.30;99.90;;;;;;5052167;28;20017;-73
2022/04/16 01:55:19;;;;;;;13.73;12.30;;;9.20;99.90;;;;;;5050872;28;20397;-73
2022/04/16 01:57:45;;;;;;;18.17;12.05;;;9.20;99.90;;;;;;5052021;28;20013;-74
2022/04/16 02:00:14;;;;;;;13.23;11.82;;;9.20;99.90;;;;;;5050848;28;20026;-73
2022/04/16 02:02:39;;;;;;;12.63;11.30;;;9.20;99.90;;;;;;5051774;28;20025;-74
2022/04/16 02:05:06;;;;;;;18.20;12.15;;;9.20;99.90;;;;;;5051993;28;20465;-74
2022/04/16 02:07:32;;;;;;;13.98;12.20;;;9.10;99.90;;;;;;5051047;28;20052;-73
2022/04/16 02:09:57;;;;;;;17.27;12.35;;;9.10;99.90;;;;;;5051905;28;20433;-73
2022/04/16 02:12:23;;;;;;;15.75;11.90;;;9.00;99.90;;;;;;5051534;28;20058;-74
2022/04/16 02:14:48;;;;;;;12.25;10.85;;;9.00;99.90;;;;;;5050767;28;20049;-74
2022/04/16 02:17:14;;;;;;;13.20;11.80;;;9.00;99.90;;;;;;5052905;28;20036;-74
2022/04/16 02:19:41;;;;;;;16.23;13.35;;;8.90;99.90;;;;;;5053846;28;20392;-73
2022/04/16 02:22:07;;;;;;;15.40;12.00;;;8.90;99.90;;;;;;5050858;28;20029;-74
2022/04/16 02:24:33;;;;;;;13.95;12.55;;;8.80;99.90;;;;;;5051652;28;20377;-73
2022/04/16 02:26:58;;;;;;;15.45;13.02;;;8.70;99.90;;;;;;5052889;28;20071;-74
2022/04/16 02:29:24;;;;;;;13.45;12.07;;;8.80;99.90;;;;;;5051723;28;20036;-74
2022/04/16 02:31:53;;;;;;;15.43;12.82;;;8.70;99.90;;;;;;5052148;28;20021;-75
2022/04/16 02:34:19;;;;;;;13.18;11.85;;;8.70;99.90;;;;;;5054471;28;20028;-72
2022/04/16 02:36:45;;;;;;;17.02;13.05;;;8.60;99.90;;;;;;5050760;28;20021;-74
2022/04/16 02:39:10;;;;;;;14.82;13.32;;;8.60;99.90;;;;;;5051160;28;20028;-73
2022/04/16 02:41:36;;;;;;;13.80;12.50;;;8.60;99.90;;;;;;5051699;28;20132;-73
2022/04/16 02:44:02;;;;;;;17.83;13.50;;;8.60;99.90;;;;;;5050859;28;20465;-73
2022/04/16 02:49:13;;;;;;;14.68;13.13;;;8.60;99.90;;;;;;5051241;28;20071;-73
2022/04/16 02:51:38;;;;;;;18.10;13.63;;;8.50;99.90;;;;;;5052463;28;20090;-74
2022/04/16 02:54:05;;;;;;;14.65;13.15;;;8.50;99.90;;;;;;5054777;28;20473;-73
2022/04/16 02:56:31;;;;;;;17.08;14.38;;;8.50;99.90;;;;;;5053785;28;20500;-72
2022/04/16 02:58:57;;;;;;;16.17;13.20;;;8.50;99.90;;;;;;5054781;28;20021;-74
2022/04/16 03:01:24;;;;;;;31.83;14.45;;;8.50;99.90;;;;;;5054748;28;20025;-73
2022/04/16 03:03:49;;;;;;;17.13;14.25;;;8.40;99.90;;;;;;5053974;28;20379;-73
2022/04/16 03:06:15;;;;;;;17.33;14.73;;;8.40;99.90;;;;;;5054489;28;20028;-73
2022/04/16 03:08:40;;;;;;;16.88;14.77;;;8.40;99.90;;;;;;5054580;28;20493;-73
2022/04/16 03:11:06;;;;;;;19.65;14.30;;;8.40;99.90;;;;;;5053632;28;20358;-73
2022/04/16 03:13:35;;;;;;;18.17;13.95;;;8.40;99.90;;;;;;5054406;28;20071;-73
2022/04/16 03:18:46;;;;;;;16.33;13.60;;;8.40;99.90;;;;;;5055212;28;20083;-75
2022/04/16 03:21:12;;;;;;;18.20;14.52;;;8.30;99.90;;;;;;5061614;28;20033;-73
2022/04/16 03:23:38;;;;;;;20.38;14.35;;;8.30;99.90;;;;;;5054318;28;20385;-72
2022/04/16 03:26:04;;;;;;;22.67;15.38;;;8.30;99.90;;;;;;5053502;28;20062;-74
2022/04/16 03:28:31;;;;;;;21.10;14.25;;;8.30;99.90;;;;;;5054236;28;20447;-73
2022/04/16 03:30:57;;;;;;;21.02;14.93;;;8.20;99.90;;;;;;5054309;28;20108;-73
2022/04/16 03:33:23;;;;;;;20.80;15.02;;;8.20;99.90;;;;;;5053176;28;20170;-73
2022/04/16 03:35:49;;;;;;;19.65;14.93;;;8.20;99.90;;;;;;5054143;28;20083;-73
2022/04/16 03:38:15;;;;;;;16.95;15.02;;;8.10;99.90;;;;;;5053633;28;20480;-73
2022/04/16 03:40:41;;;;;;;18.30;15.38;;;8.00;99.90;;;;;;5053922;28;20036;-73
2022/04/16 03:43:07;;;;;;;26.23;15.38;;;8.00;99.90;;;;;;5053934;28;20017;-73
2022/04/16 03:45:34;;;;;;;24.77;16.42;;;8.00;99.90;;;;;;5053487;28;20083;-74
2022/04/16 03:48:02;;;;;;;19.95;15.68;;;8.00;99.90;;;;;;5053984;28;20027;-73
2022/04/16 03:50:28;;;;;;;23.70;16.27;;;8.00;99.90;;;;;;5053641;28;20032;-74
2022/04/16 03:52:58;;;;;;;24.63;16.88;;;7.90;99.90;;;;;;5053115;28;20033;-73
2022/04/16 04:00:57;;;;;;;21.67;15.73;;;7.80;99.90;;;;;;5053197;28;20044;-73
2022/04/16 04:03:23;;;;;;;22.85;16.05;;;7.80;99.90;;;;;;5052702;28;20508;-73
2022/04/16 04:05:53;;;;;;;25.33;15.70;;;7.80;99.90;;;;;;5053449;28;20103;-73
2022/04/16 04:08:20;;;;;;;23.13;15.82;;;7.70;99.90;;;;;;5052764;28;20053;-74
2022/04/16 04:10:46;;;;;;;23.33;15.57;;;7.70;99.90;;;;;;5053642;28;20104;-73
2022/04/16 04:13:13;;;;;;;23.75;15.80;;;7.70;99.90;;;;;;5053254;28;20055;-74
2022/04/16 04:15:42;;;;;;;30.52;18.17;;;7.60;99.90;;;;;;5052781;28;20039;-74
2022/04/16 04:18:07;;;;;;;22.90;15.20;;;7.60;99.90;;;;;;5053738;28;20021;-74
2022/04/16 04:20:37;;;;;;;19.48;15.70;;;7.60;99.90;;;;;;5054211;28;20045;-74
2022/04/16 04:23:05;;;;;;;27.40;17.40;;;7.50;99.90;;;;;;5053456;28;20028;-73
2022/04/16 04:25:31;;;;;;;18.50;14.50;;;7.60;99.90;;;;;;5053065;28;20047;-72
2022/04/16 04:27:56;;;;;;;22.20;16.08;;;7.50;99.90;;;;;;5052341;28;20017;-72
2022/04/16 04:30:23;;;;;;;26.50;17.25;;;7.50;99.90;;;;;;5052992;28;20481;-75
2022/04/16 04:32:48;;;;;;;22.80;16.58;;;7.50;99.90;;;;;;5053450;28;20028;-74
2022/04/16 04:35:14;;;;;;;22.30;16.15;;;7.50;99.90;;;;;;5053446;28;20546;-75
2022/04/16 04:37:40;;;;;;;22.35;15.85;;;7.50;99.90;;;;;;5056512;28;20055;-74
2022/04/16 04:40:06;;;;;;;27.20;16.52;;;7.50;99.90;;;;;;5053065;28;20041;-73
2022/04/16 04:42:33;;;;;;;20.02;15.82;;;7.50;99.90;;;;;;5052365;28;20102;-73
2022/04/16 04:45:06;;;;;;;25.63;17.48;;;7.50;99.90;;;;;;5052803;28;20029;-73
2022/04/16 04:47:31;;;;;;;27.23;16.00;;;7.50;99.90;;;;;;5052613;28;20025;-73
2022/04/16 04:49:57;;;;;;;25.05;16.88;;;7.40;99.90;;;;;;5052101;28;20024;-73
2022/04/16 04:52:26;;;;;;;26.05;16.77;;;7.40;99.90;;;;;;5057764;28;20060;-75
2022/04/16 04:54:56;;;;;;;25.75;17.10;;;7.40;99.90;;;;;;5056416;28;20064;-73
2022/04/16 04:57:21;;;;;;;24.58;16.52;;;7.50;99.90;;;;;;5051845;28;20021;-73
2022/04/16 04:59:47;;;;;;;25.27;17.73;;;7.40;99.90;;;;;;5052623;28;20063;-73
2022/04/16 05:02:12;;;;;;;22.40;15.63;;;7.40;99.90;;;;;;5052471;28;20021;-74
2022/04/16 05:04:38;;;;;;;27.75;17.70;;;7.50;99.90;;;;;;5051946;28;20452;-74
2022/04/16 05:07:05;;;;;;;23.92;16.65;;;7.50;99.90;;;;;;5052423;28;20033;-73
2022/04/16 05:09:31;;;;;;;25.83;16.55;;;7.50;99.90;;;;;;5051697;28;20113;-74
2022/04/16 05:11:56;;;;;;;25.67;17.25;;;7.50;99.90;;;;;;5051451;28;20094;-74
2022/04/16 05:14:22;;;;;;;23.10;17.90;;;7.50;99.90;;;;;;5051108;28;20025;-74
2022/04/16 05:16:49;;;;;;;24.85;17.33;;;7.60;99.90;;;;;;5052042;28;20033;-74
2022/04/16 05:19:14;;;;;;;21.88;17.35;;;7.60;99.90;;;;;;5051044;28;20515;-74
2022/04/16 05:21:41;;;;;;;23.75;16.60;;;7.60;99.90;;;;;;5052232;28;20029;-73
2022/04/16 05:24:07;;;;;;;23.67;16.92;;;7.70;99.90;;;;;;5051065;28;20096;-73
2022/04/16 05:26:33;;;;;;;24.08;16.83;;;7.60;99.90;;;;;;5052176;28;20021;-74
2022/04/16 05:28:59;;;;;;;24.33;17.50;;;7.70;99.90;;;;;;5053168;28;20599;-73
2022/04/16 05:31:26;;;;;;;25.80;18.58;;;7.70;99.90;;;;;;5051063;28;20025;-73
2022/04/16 05:36:37;;;;;;;30.42;18.00;;;7.70;99.90;;;;;;5051867;28;20116;-74
2022/04/16 05:39:02;;;;;;;22.10;16.67;;;7.80;99.90;;;;;;5050019;28;20459;-74
2022/04/16 05:41:28;;;;;;;31.52;17.38;;;7.80;99.90;;;;;;5049963;28;20036;-73
2022/04/16 05:43:54;;;;;;;28.13;17.90;;;7.80;99.90;;;;;;5050506;28;20037;-74
2022/04/16 05:46:19;;;;;;;23.02;17.67;;;7.90;99.90;;;;;;5049243;28;20523;-74
2022/04/16 05:48:45;;;;;;;26.08;17.77;;;7.90;99.90;;;;;;5050179;28;20052;-74
2022/04/16 05:51:13;;;;;;;23.05;17.60;;;8.00;99.90;;;;;;5049801;28;20024;-73
2022/04/16 05:53:39;;;;;;;21.85;17.67;;;8.00;99.90;;;;;;5049406;28;20071;-74
2022/04/16 05:56:05;;;;;;;26.95;18.13;;;8.10;99.90;;;;;;5048690;28;20041;-75
2022/04/16 05:58:31;;;;;;;25.52;18.65;;;8.10;99.90;;;;;;5049864;28;20032;-73
2022/04/16 06:00:57;;;;;;;23.63;17.88;;;8.10;99.90;;;;;;5049289;28;20120;-73
2022/04/16 06:03:23;;;;;;;29.00;19.52;;;8.30;99.90;;;;;;5050091;28;20049;-75
2022/04/16 06:05:50;;;;;;;28.40;19.27;;;8.30;99.90;;;;;;5050306;28;20040;-74
2022/04/16 06:08:16;;;;;;;28.15;18.90;;;8.30;99.90;;;;;;5049075;28;20083;-74
2022/04/16 06:10:41;;;;;;;29.75;19.20;;;8.40;99.90;;;;;;5050286;28;20033;-73
2022/04/16 06:13:07;;;;;;;28.42;18.58;;;8.40;99.90;;;;;;5050059;28;20053;-74
2022/04/16 06:15:33;;;;;;;28.25;19.08;;;8.50;99.90;;;;;;5049638;28;20040;-73
2022/04/16 06:17:58;;;;;;;32.15;20.65;;;8.50;99.90;;;;;;5050386;28;20542;-74
2022/04/16 06:20:24;;;;;;;27.23;20.90;;;8.60;99.90;;;;;;5049444;28;20431;-75
2022/04/16 06:22:49;;;;;;;27.00;18.00;;;8.70;99.90;;;;;;5052451;28;20025;-73
2022/04/16 06:25:15;;;;;;;30.10;21.08;;;8.70;99.90;;;;;;5051653;28;20389;-74
2022/04/16 06:27:43;;;;;;;29.35;19.95;;;8.80;99.90;;;;;;5057529;28;20021;-75
2022/04/16 06:30:10;;;;;;;27.85;19.70;;;8.80;99.90;;;;;;5054950;28;20029;-74
2022/04/16 06:32:36;;;;;;;25.30;19.42;;;8.90;99.90;;;;;;5059269;28;20053;-73
2022/04/16 06:35:05;;;;;;;28.33;20.98;;;8.90;99.90;;;;;;5056173;28;20037;-74
2022/04/16 06:37:32;;;;;;;27.13;20.77;;;9.00;99.90;;;;;;5054045;28;20042;-74
2022/04/16 06:39:57;;;;;;;30.30;20.80;;;9.00;99.90;;;;;;5062724;28;20029;-74
2022/04/16 06:42:23;;;;;;;28.27;20.20;;;9.10;99.90;;;;;;5054734;28;20376;-74
2022/04/16 06:44:48;;;;;;;32.33;20.75;;;9.10;99.90;;;;;;5059481;28;20533;-73
2022/04/16 06:47:14;;;;;;;31.33;21.33;;;9.20;99.90;;;;;;5070732;28;20076;-73
2022/04/16 06:49:39;;;;;;;36.35;21.17;;;9.20;99.90;;;;;;5070762;28;20059;-74
2022/04/16 06:52:05;;;;;;;33.67;21.58;;;9.30;99.90;;;;;;5053925;28;20469;-73
2022/04/16 06:54:31;;;;;;;29.65;20.10;;;9.30;99.90;;;;;;5053768;28;20024;-74
2022/04/16 06:56:56;;;;;;;31.75;21.13;;;9.40;99.90;;;;;;5059597;28;20020;-73
2022/04/16 06:59:22;;;;;;;33.83;22.35;;;9.40;99.90;;;;;;5069850;28;20017;-74
2022/04/16 07:01:48;;;;;;;30.50;23.00;;;9.50;99.90;;;;;;5052930;28;20029;-73
2022/04/16 07:04:13;;;;;;;32.22;20.95;;;9.50;99.90;;;;;;5050870;28;20163;-74
2022/04/16 07:06:41;;;;;;;28.60;21.23;;;9.60;99.90;;;;;;5056559;28;20033;-73
2022/04/16 07:09:07;;;;;;;32.58;23.40;;;9.70;99.90;;;;;;5070835;28;20046;-73
2022/04/16 07:11:33;;;;;;;32.13;21.48;;;9.70;99.90;;;;;;5051052;28;20043;-73
2022/04/16 07:13:58;;;;;;;30.30;22.20;;;9.80;99.90;;;;;;5051645;28;20033;-72
2022/04/16 07:16:24;;;;;;;31.85;22.73;;;9.90;99.90;;;;;;5065971;28;20036;-72
2022/04/16 07:18:49;;;;;;;35.33;22.38;;;9.90;99.90;;;;;;5070099;28;20017;-72
2022/04/16 07:21:15;;;;;;;31.88;22.33;;;10.00;99.90;;;;;;5069640;28;20028;-72
2022/04/16 07:23:41;;;;;;;29.20;21.15;;;10.10;99.90;;;;;;5070394;28;20047;-73
2022/04/16 07:26:06;;;;;;;33.50;20.80;;;10.10;99.90;;;;;;5068475;28;20048;-72
2022/04/16 07:28:32;;;;;;;31.90;22.45;;;10.20;99.90;;;;;;5053166;28;20013;-73
2022/04/16 07:31:00;;;;;;;30.35;20.77;;;10.20;99.90;;;;;;5063287;28;20429;-72
2022/04/16 07:33:31;;;;;;;31.45;22.73;;;10.30;99.90;;;;;;5053442;28;20025;-73
2022/04/16 07:35:57;;;;;;;31.55;21.13;;;10.30;99.90;;;;;;5054038;28;20456;-73
2022/04/16 07:38:22;;;;;;;33.13;21.23;;;10.40;99.90;;;;;;5051982;28;20096;-74
2022/04/16 07:40:48;;;;;;;27.33;20.90;;;10.50;99.90;;;;;;5054099;28;20098;-73
2022/04/16 07:43:17;;;;;;;31.38;22.40;;;10.50;99.90;;;;;;5053695;28;20037;-73
2022/04/16 07:45:43;;;;;;;32.10;21.80;;;10.50;99.90;;;;;;5052776;28;20449;-74
2022/04/16 07:48:09;;;;;;;31.58;22.25;;;10.60;99.90;;;;;;5053204;28;20028;-74
2022/04/16 07:50:37;;;;;;;34.08;23.10;;;10.70;99.90;;;;;;5053428;28;20033;-73
2022/04/16 07:53:04;;;;;;;32.42;21.45;;;10.80;99.90;;;;;;5052918;28;20025;-73
2022/04/16 07:55:31;;;;;;;32.03;21.17;;;10.80;99.90;;;;;;5053112;28;20049;-74
2022/04/16 07:58:00;;;;;;;29.45;21.35;;;10.90;99.90;;;;;;5053497;28;20052;-74
2022/04/16 08:00:26;;;;;;;28.50;20.45;;;10.90;99.90;;;;;;5052673;28;20025;-74
2022/04/16 08:02:51;;;;;;;30.25;21.80;;;11.00;99.90;;;;;;5053584;28;20044;-74
2022/04/16 08:05:17;;;;;;;26.77;20.92;;;11.00;99.90;;;;;;5053171;28;20052;-72
2022/04/16 08:07:44;;;;;;;28.15;19.55;;;11.10;99.90;;;;;;5053086;28;20080;-73
2022/04/16 08:10:10;;;;;;;32.15;20.42;;;11.20;99.90;;;;;;5053349;28;20024;-72
2022/04/16 08:12:36;;;;;;;32.42;20.38;;;11.30;99.90;;;;;;5054136;28;20051;-72
2022/04/16 08:15:03;;;;;;;31.73;19.70;;;11.30;99.90;;;;;;5055801;28;20033;-74
2022/04/16 08:17:28;;;;;;;31.73;20.38;;;11.50;99.90;;;;;;5052816;28;20370;-72
2022/04/16 08:19:54;;;;;;;34.17;21.80;;;11.50;99.90;;;;;;5052527;28;20096;-72
2022/04/16 08:22:21;;;;;;;35.05;21.45;;;11.50;99.90;;;;;;5053170;28;20063;-72
2022/04/16 08:25:43;;;;;;;29.17;20.58;;;11.60;99.90;;;;;;5053340;28;20381;-73
2022/04/16 08:27:42;;;;;;;26.65;20.80;;;11.70;99.90;;;;;;5052298;28;20443;-72
2022/04/16 08:30:10;;;;;;;29.80;20.45;;;11.70;99.90;;;;;;5052639;28;20528;-72
2022/04/16 08:32:36;;;;;;;29.02;20.35;;;11.80;99.90;;;;;;5053259;28;20079;-72
2022/04/16 08:35:03;;;;;;;27.52;20.08;;;11.90;99.90;;;;;;5052454;28;20033;-72
2022/04/16 08:37:28;;;;;;;27.55;20.25;;;11.90;99.90;;;;;;5052261;28;20090;-70
2022/04/16 08:39:54;;;;;;;31.27;20.15;;;12.00;99.90;;;;;;5052983;28;20025;-69
2022/04/16 08:42:21;;;;;;;27.73;21.25;;;12.10;99.90;;;;;;5065262;28;20059;-74
2022/04/16 08:44:47;;;;;;;31.10;20.35;;;12.20;99.90;;;;;;5073381;28;20029;-72
2022/04/16 08:47:13;;;;;;;26.05;19.17;;;12.30;99.90;;;;;;5072678;28;20077;-73
2022/04/16 08:49:39;;;;;;;24.30;18.83;;;12.40;99.90;;;;;;5071999;28;20052;-72
2022/04/16 08:52:08;;;;;;;30.65;19.65;;;12.40;99.90;;;;;;5072790;28;20025;-72
2022/04/16 08:54:35;;;;;;;29.98;19.80;;;12.40;99.90;;;;;;5072582;28;20044;-72
2022/04/16 08:57:01;;;;;;;26.17;18.50;;;12.50;99.90;;;;;;5071944;28;20021;-73
2022/04/16 08:59:26;;;;;;;25.45;20.25;;;12.50;99.90;;;;;;5072126;28;20435;-72
2022/04/16 09:01:53;;;;;;;25.45;18.95;;;12.60;99.90;;;;;;5072430;28;20025;-74
2022/04/16 09:04:22;;;;;;;28.50;19.40;;;12.60;99.90;;;;;;5071531;28;20028;-74
2022/04/16 09:06:59;;;;;;;22.33;17.92;;;12.70;99.90;;;;;;5072483;28;20476;-74
2022/04/16 09:09:25;;;;;;;22.10;17.80;;;12.70;99.90;;;;;;5071324;28;20478;-73
2022/04/16 09:11:51;;;;;;;23.23;18.75;;;12.80;99.90;;;;;;5072348;28;20063;-73
2022/04/16 09:14:17;;;;;;;21.83;17.70;;;12.90;99.90;;;;;;5072284;28;20044;-74
2022/04/16 09:16:43;;;;;;;25.40;18.13;;;12.90;99.90;;;;;;5071420;28;20032;-73
2022/04/16 09:19:16;;;;;;;25.00;17.52;;;12.80;99.90;;;;;;5074253;28;20031;-72
2022/04/16 09:21:43;;;;;;;25.77;17.83;;;13.00;99.90;;;;;;5081944;28;20040;-73
2022/04/16 09:24:09;;;;;;;20.50;16.33;;;13.00;99.90;;;;;;5071414;28;20012;-71
2022/04/16 09:26:37;;;;;;;21.20;17.38;;;13.10;99.90;;;;;;5072189;28;20130;-73
2022/04/16 09:29:10;;;;;;;24.08;16.55;;;13.10;99.90;;;;;;5074210;28;20487;-72
2022/04/16 09:31:40;;;;;;;22.35;17.55;;;13.20;99.90;;;;;;5077567;28;20064;-73
2022/04/16 09:34:14;;;;;;;23.92;17.88;;;13.20;99.90;;;;;;5090755;28;20472;-73
2022/04/16 09:36:40;;;;;;;21.00;16.60;;;13.30;99.90;;;;;;5089344;28;20040;-73
2022/04/16 09:39:07;;;;;;;19.05;16.23;;;13.30;99.90;;;;;;5082541;28;20024;-72
2022/04/16 09:41:34;;;;;;;24.98;17.55;;;13.40;99.90;;;;;;5092471;28;20055;-73
2022/04/16 09:44:01;;;;;;;19.88;17.33;;;13.50;99.90;;;;;;5074912;28;20089;-73
2022/04/16 09:46:28;;;;;;;20.08;17.20;;;13.50;99.90;;;;;;5070815;28;20344;-72
2022/04/16 09:49:04;;;;;;;23.50;17.42;;;13.50;99.90;;;;;;5078042;28;20026;-72
2022/04/16 09:51:35;;;;;;;21.77;16.85;;;13.60;99.90;;;;;;5091118;28;20491;-72
2022/04/16 09:54:06;;;;;;;18.10;15.68;;;13.70;99.90;;;;;;5080219;28;20029;-71
2022/04/16 09:56:34;;;;;;;21.27;16.58;;;13.80;99.90;;;;;;5051447;28;20039;-72
2022/04/16 09:59:03;;;;;;;20.13;16.50;;;13.80;99.90;;;;;;5051046;28;20107;-72
2022/04/16 10:01:29;;;;;;;19.42;16.05;;;13.90;99.90;;;;;;5053196;28;20028;-72
2022/04/16 10:03:56;;;;;;;16.90;14.70;;;14.00;99.90;;;;;;5056274;28;20477;-73
2022/04/16 10:06:22;;;;;;;15.98;13.95;;;14.10;99.90;;;;;;5068359;28;20051;-72
2022/04/16 10:08:51;;;;;;;15.35;13.65;;;14.10;99.90;;;;;;5075192;28;20083;-71
2022/04/16 10:11:32;;;;;;;14.43;12.90;;;14.20;99.90;;;;;;5075368;28;20028;-72
2022/04/16 10:14:05;;;;;;;15.50;12.85;;;14.30;99.90;;;;;;5074266;28;20028;-72
2022/04/16 10:16:44;;;;;;;17.35;14.52;;;14.20;99.90;;;;;;5074855;28;20068;-72
2022/04/16 10:19:16;;;;;;;15.50;13.07;;;14.20;99.90;;;;;;5074173;28;20030;-72
2022/04/16 10:21:42;;;;;;;13.82;12.15;;;14.30;99.90;;;;;;5074834;28;20032;-71
2022/04/16 10:24:08;;;;;;;16.48;12.85;;;14.40;99.90;;;;;;5075774;28;20028;-72
2022/04/16 10:26:43;;;;;;;13.75;11.48;;;14.50;99.90;;;;;;5077276;28;20433;-73
2022/04/16 10:29:09;;;;;;;13.20;11.73;;;14.60;99.90;;;;;;5075869;28;20522;-72
2022/04/16 10:31:36;;;;;;;16.45;12.65;;;14.60;99.90;;;;;;5075746;28;20028;-72
2022/04/16 10:34:05;;;;;;;14.27;11.98;;;14.70;99.90;;;;;;5074543;28;20537;-75
2022/04/16 10:36:42;;;;;;;11.75;10.52;;;14.70;99.90;;;;;;5075013;28;20032;-72
2022/04/16 10:39:15;;;;;;;14.70;13.23;;;14.70;99.90;;;;;;5074967;28;20416;-72
2022/04/16 10:41:58;;;;;;;14.15;12.70;;;14.80;99.90;;;;;;5074435;28;20039;-73
2022/04/16 10:44:25;;;;;;;14.18;12.32;;;14.90;99.90;;;;;;5073380;28;20473;-73
2022/04/16 10:46:53;;;;;;;15.80;12.52;;;15.00;99.90;;;;;;5054839;28;20017;-72
2022/04/16 10:49:20;;;;;;;13.70;12.30;;;15.00;99.90;;;;;;5054277;28;20078;-72
2022/04/16 10:51:46;;;;;;;14.38;12.65;;;15.00;99.90;;;;;;5055117;28;20051;-74
2022/04/16 10:54:15;;;;;;;12.20;10.80;;;15.00;99.90;;;;;;5055256;28;20025;-75
2022/04/16 10:56:53;;;;;;;10.88;9.98;;;15.00;99.90;;;;;;5054709;28;20458;-73
2022/04/16 10:59:44;;;;;;;13.02;10.50;;;15.10;99.90;;;;;;5055045;28;20031;-72
2022/04/16 11:02:21;;;;;;;12.68;10.75;;;15.10;99.90;;;;;;5059707;28;20045;-74
2022/04/16 11:05:00;;;;;;;9.75;8.85;;;15.20;99.90;;;;;;5054940;28;20045;-73
2022/04/16 11:07:27;;;;;;;11.88;10.48;;;15.20;99.90;;;;;;5054291;28;20380;-72
2022/04/16 11:09:53;;;;;;;10.18;9.18;;;15.10;99.90;;;;;;5053951;28;20033;-72
2022/04/16 11:12:20;;;;;;;9.65;8.65;;;15.00;99.90;;;;;;5054141;28;20462;-72
2022/04/16 11:14:52;;;;;;;9.98;8.98;;;15.00;99.90;;;;;;5054372;28;20461;-72
2022/04/16 11:17:19;;;;;;;8.57;7.78;;;15.10;99.90;;;;;;5053845;28;20104;-72
2022/04/16 11:19:48;;;;;;;7.03;6.43;;;15.20;99.90;;;;;;5054485;28;20047;-73
2022/04/16 11:22:15;;;;;;;4.40;4.10;;;15.30;99.90;;;;;;5053977;28;20033;-73
2022/04/16 11:24:41;;;;;;;5.93;4.95;;;15.30;99.90;;;;;;5053816;28;20108;-72
2022/04/16 11:35:23;;;;;;;6.18;5.60;;;15.40;99.50;;;;;;5055494;28;20044;-72
2022/04/16 11:37:56;;;;;;;6.05;5.50;;;15.50;99.00;;;;;;5052067;28;20029;-71
2022/04/16 11:40:21;;;;;;;4.95;4.45;;;15.50;99.20;;;;;;5052545;28;20061;-71
2022/04/16 11:42:47;;;;;;;5.40;4.90;;;15.50;97.90;;;;;;5052477;28;20110;-71
2022/04/16 11:45:14;;;;;;;7.55;5.20;;;15.60;98.50;;;;;;5051950;28;20036;-73
2022/04/16 11:47:40;;;;;;;6.07;4.97;;;15.60;98.10;;;;;;5054281;28;20021;-71
2022/04/16 11:50:07;;;;;;;5.65;4.05;;;15.70;98.50;;;;;;5052736;28;20024;-72
2022/04/16 11:52:34;;;;;;;4.88;4.00;;;15.80;97.30;;;;;;5050686;28;20112;-72
2022/04/16 11:55:00;;;;;;;5.45;4.95;;;15.80;97.10;;;;;;5052562;28;20499;-72
2022/04/16 11:57:26;;;;;;;6.07;5.57;;;15.90;96.70;;;;;;5052328;28;20043;-71
2022/04/16 11:59:59;;;;;;;6.18;5.57;;;15.90;97.30;;;;;;5051941;28;20021;-72
2022/04/16 12:02:36;;;;;;;6.97;5.43;;;15.90;96.70;;;;;;5054977;28;20472;-71
2022/04/16 12:05:13;;;;;;;4.47;4.07;;;16.00;95.80;;;;;;5051686;28;20033;-72
2022/04/16 12:07:43;;;;;;;5.50;5.00;;;15.90;96.60;;;;;;5052204;28;20021;-72
2022/04/16 12:10:13;;;;;;;6.18;5.68;;;16.00;96.30;;;;;;5052068;28;20041;-72
2022/04/16 12:12:50;;;;;;;6.50;5.95;;;16.10;95.60;;;;;;5051452;28;20052;-71
2022/04/16 12:15:23;;;;;;;9.27;6.35;;;16.20;96.00;;;;;;5052152;28;20033;-72
2022/04/16 12:17:51;;;;;;;7.10;6.50;;;16.20;95.90;;;;;;5052151;28;20385;-73
2022/04/16 12:20:17;;;;;;;8.48;7.50;;;16.30;96.00;;;;;;5050857;28;20473;-72
2022/04/16 12:22:59;;;;;;;7.30;6.70;;;16.40;95.90;;;;;;5054955;28;20025;-72
2022/04/16 12:25:25;;;;;;;7.40;6.63;;;16.50;95.80;;;;;;5051255;28;20029;-71
2022/04/16 12:27:56;;;;;;;7.15;5.82;;;16.60;95.90;;;;;;5053551;28;20568;-71
2022/04/16 12:30:33;;;;;;;7.30;6.60;;;16.70;96.20;;;;;;5052710;28;20021;-72
2022/04/16 12:33:06;;;;;;;7.78;7.07;;;16.70;96.30;;;;;;5078295;28;20032;-72
2022/04/16 12:35:36;;;;;;;6.95;6.28;;;16.70;96.10;;;;;;5055768;28;20044;-72
2022/04/16 12:38:03;;;;;;;6.93;5.90;;;16.70;95.70;;;;;;5053060;28;20056;-72
2022/04/16 12:40:30;;;;;;;6.40;5.80;;;16.70;95.50;;;;;;5052435;28;20033;-71
2022/04/16 12:42:57;;;;;;;6.10;5.57;;;16.90;95.30;;;;;;5052934;28;20028;-71
2022/04/16 12:45:24;;;;;;;6.03;5.43;;;16.90;94.70;;;;;;5053888;28;20033;-72
2022/04/16 12:47:53;;;;;;;7.20;6.50;;;16.90;94.00;;;;;;5062231;28;20385;-71
2022/04/16 12:50:19;;;;;;;7.07;6.10;;;17.00;93.60;;;;;;5051584;28;20029;-71
2022/04/16 12:52:45;;;;;;;6.50;5.90;;;17.00;93.80;;;;;;5052048;28;20461;-71
2022/04/16 12:55:12;;;;;;;8.65;5.70;;;17.10;93.70;;;;;;5053675;28;20053;-73